Decoded Metar for KMEI (MERIDIAN/KEY FLD in MS, USA) (IATA:MEI) | Meteo·Mobile Aviation Weather
aviador You're here:

KMEI Decoded Metar

MERIDIAN/KEY FLD in MS, USA
Report Time2019-10-22 13:16:00
UTC Time2019-10-22 13:26:03
Flight Rules vfr VFR
WindCalm
Visibility9999 m
Phenomena:N/A
Clouds:N/A
Expected CloudBase > 400 ft AGL from Temp-Dew spread
CeilingNone
Temp13°C (ISA -1)
Dew Point12°C (94% RH)
QNH1019 hPa
Density Alt108 ft
Elevation292 ft
Report Wrong Elevation
Raw Report
KMEI 221316Z 00000KT 10SM CLR 13/12 A3008 RMK AO2 T01330122=

Extra information for KMEI:More info

Metar Taf Metar & Taf Last 4 Metars F.Rules Stats Wind Profile Meteogram Temp Stats Airport Information Weather charts Add Link Nearby VenuesMetar ALERT Operation Metar Decoded Social comments

AIRNAV info for KMEI